Time,TemperatureF,DewpointF,PressureIn,WindDirection,WindDirectionDegrees,WindSpeedMPH,WindSpeedGustMPH,Humidity,HourlyPrecipIn,Conditions,Clouds,dailyrainin,SolarRadiationWatts/m^2,SoftwareType,DateUTC
2013-03-03 00:01:00,41.0,31.0,-100.00,SW,232,2.0,10.0,67,-99.99,,,0.00,0.000000,,2013-03-03 08:01:00,
2013-03-03 00:11:00,41.0,31.0,-100.00,SW,232,2.0,10.0,67,-99.99,,,0.00,0.000000,,2013-03-03 08:11:00,
2013-03-03 00:41:00,40.0,31.0,-100.00,SSW,203,3.0,9.0,70,-99.99,,,-99.99,0.000000,,2013-03-03 08:41:00,
2013-03-03 00:54:00,40.0,31.0,-100.00,SSW,203,3.0,9.0,70,-99.99,,,-99.99,0.000000,,2013-03-03 08:54:00,
2013-03-03 01:01:00,40.0,31.0,-100.00,SSW,203,3.0,9.0,70,-99.99,,,-99.99,0.000000,,2013-03-03 09:01:00,
2013-03-03 01:11:00,40.0,31.0,-100.00,SSW,203,3.0,9.0,70,-99.99,,,-99.99,0.000000,,2013-03-03 09:11:00,
2013-03-03 01:41:00,41.0,30.0,-100.00,SW,220,4.0,10.0,64,-99.99,,,0.00,0.000000,,2013-03-03 09:41:00,
2013-03-03 01:52:00,41.0,30.0,-100.00,SW,220,4.0,10.0,64,-99.99,,,0.00,0.000000,,2013-03-03 09:52:00,
2013-03-03 02:01:00,41.0,30.0,-100.00,SW,220,4.0,10.0,64,-99.99,,,0.00,0.000000,,2013-03-03 10:01:00,
2013-03-03 02:11:00,41.0,30.0,-100.00,SW,220,4.0,10.0,64,-99.99,,,0.00,0.000000,,2013-03-03 10:11:00,
2013-03-03 02:42:00,39.0,31.0,-100.00,NNW,348,3.0,6.0,71,-99.99,,,0.00,0.000000,,2013-03-03 10:42:00,
2013-03-03 02:52:00,39.0,31.0,-100.00,NNW,348,3.0,6.0,71,-99.99,,,0.00,0.000000,,2013-03-03 10:52:00,
2013-03-03 03:01:00,39.0,31.0,-100.00,NNW,348,3.0,6.0,71,-99.99,,,0.00,0.000000,,2013-03-03 11:01:00,
2013-03-03 03:11:00,39.0,31.0,-100.00,NNW,348,3.0,6.0,71,-99.99,,,0.00,0.000000,,2013-03-03 11:11:00,
2013-03-03 03:42:00,37.0,31.0,-100.00,NNW,348,0.0,2.0,79,-99.99,,,0.00,0.000000,,2013-03-03 11:42:00,
2013-03-03 03:52:00,37.0,31.0,-100.00,NNW,348,0.0,2.0,79,-99.99,,,0.00,0.000000,,2013-03-03 11:52:00,
2013-03-03 04:01:00,37.0,31.0,-100.00,NNW,348,0.0,2.0,79,-99.99,,,0.00,0.000000,,2013-03-03 12:01:00,
2013-03-03 04:11:00,37.0,31.0,-100.00,NNW,348,0.0,2.0,79,-99.99,,,0.00,0.000000,,2013-03-03 12:11:00,
2013-03-03 04:42:00,36.0,30.0,-100.00,NE,36,2.0,8.0,81,-99.99,,,0.00,0.000000,,2013-03-03 12:42:00,
2013-03-03 04:53:00,36.0,30.0,-100.00,NE,36,2.0,8.0,81,-99.99,,,0.00,0.000000,,2013-03-03 12:53:00,
2013-03-03 05:01:00,36.0,30.0,-100.00,NE,36,2.0,8.0,81,-99.99,,,0.00,0.000000,,2013-03-03 13:01:00,
2013-03-03 05:11:00,36.0,30.0,-100.00,NE,36,2.0,8.0,81,-99.99,,,0.00,0.000000,,2013-03-03 13:11:00,
2013-03-03 05:42:00,34.0,27.0,-100.00,NNW,341,3.0,8.0,74,-99.99,,,0.00,0.000000,,2013-03-03 13:42:00,
2013-03-03 05:52:00,34.0,27.0,-100.00,NNW,341,3.0,8.0,74,-99.99,,,0.00,0.000000,,2013-03-03 13:52:00,
2013-03-03 06:01:00,34.0,27.0,-100.00,NNW,341,3.0,8.0,74,-99.99,,,0.00,0.000000,,2013-03-03 14:01:00,
2013-03-03 06:11:00,34.0,27.0,-100.00,NNW,341,3.0,8.0,74,-99.99,,,0.00,0.000000,,2013-03-03 14:11:00,
2013-03-03 06:42:00,31.0,26.0,-100.00,NE,36,1.0,3.0,81,-99.99,,,0.00,0.000000,,2013-03-03 14:42:00,
2013-03-03 06:52:00,31.0,26.0,-100.00,NE,36,1.0,3.0,81,-99.99,,,0.00,0.000000,,2013-03-03 14:52:00,
2013-03-03 07:01:00,31.0,26.0,-100.00,NE,36,1.0,3.0,81,-99.99,,,0.00,0.000000,,2013-03-03 15:01:00,
2013-03-03 07:11:00,31.0,26.0,-100.00,NE,36,1.0,3.0,81,-99.99,,,0.00,0.000000,,2013-03-03 15:11:00,
2013-03-03 07:32:00,31.0,25.0,-100.00,North,7,2.0,5.0,79,-99.99,,,0.00,17.430000,,2013-03-03 15:32:00,
2013-03-03 07:42:00,31.0,25.0,-100.00,North,7,2.0,5.0,79,-99.99,,,0.00,17.430000,,2013-03-03 15:42:00,
2013-03-03 07:52:00,31.0,25.0,-100.00,North,7,2.0,5.0,79,-99.99,,,0.00,17.430000,,2013-03-03 15:52:00,
2013-03-03 08:01:00,31.0,25.0,-100.00,North,7,2.0,5.0,79,-99.99,,,0.00,17.430000,,2013-03-03 16:01:00,
2013-03-03 08:12:00,31.0,25.0,-100.00,North,7,2.0,5.0,79,-99.99,,,0.00,17.430000,,2013-03-03 16:12:00,
2013-03-03 08:42:00,33.0,23.0,-100.00,North,359,2.0,6.0,66,-99.99,,,0.00,257.429993,,2013-03-03 16:42:00,
2013-03-03 08:52:00,33.0,23.0,-100.00,North,359,2.0,6.0,66,-99.99,,,0.00,257.429993,,2013-03-03 16:52:00,
2013-03-03 09:01:00,33.0,23.0,-100.00,North,359,2.0,6.0,66,-99.99,,,0.00,257.429993,,2013-03-03 17:01:00,
2013-03-03 09:11:00,33.0,23.0,-100.00,North,359,2.0,6.0,66,-99.99,,,0.00,257.429993,,2013-03-03 17:11:00,
2013-03-03 09:42:00,34.0,22.0,-100.00,NE,49,3.0,7.0,59,-99.99,,,0.00,411.880005,,2013-03-03 17:42:00,
2013-03-03 09:52:00,34.0,22.0,-100.00,NE,49,3.0,7.0,59,-99.99,,,0.00,411.880005,,2013-03-03 17:52:00,
2013-03-03 10:01:00,34.0,22.0,-100.00,NE,49,3.0,7.0,59,-99.99,,,0.00,411.880005,,2013-03-03 18:01:00,
2013-03-03 10:11:00,34.0,22.0,-100.00,NE,49,3.0,7.0,59,-99.99,,,0.00,411.880005,,2013-03-03 18:11:00,
2013-03-03 11:42:00,39.0,12.0,-100.00,NE,36,2.0,8.0,33,-99.99,,,0.00,673.609985,,2013-03-03 19:42:00,
2013-03-03 11:52:00,39.0,12.0,-100.00,NE,36,2.0,8.0,33,-99.99,,,0.00,673.609985,,2013-03-03 19:52:00,
2013-03-03 12:01:00,39.0,12.0,-100.00,NE,36,2.0,8.0,33,-99.99,,,0.00,673.609985,,2013-03-03 20:01:00,
2013-03-03 12:11:00,39.0,12.0,-100.00,NE,36,2.0,8.0,33,-99.99,,,0.00,673.609985,,2013-03-03 20:11:00,
2013-03-03 12:42:00,40.0,7.0,-100.00,North,359,4.0,11.0,24,-99.99,,,0.00,711.500000,,2013-03-03 20:42:00,
2013-03-03 12:52:00,40.0,7.0,-100.00,North,359,4.0,11.0,24,-99.99,,,0.00,711.500000,,2013-03-03 20:52:00,
2013-03-03 13:01:00,40.0,7.0,-100.00,North,359,4.0,11.0,24,-99.99,,,0.00,711.500000,,2013-03-03 21:01:00,
2013-03-03 13:11:00,40.0,7.0,-100.00,North,359,4.0,11.0,24,-99.99,,,0.00,711.500000,,2013-03-03 21:11:00,
2013-03-03 13:41:00,41.0,7.0,-100.00,NNE,14,3.0,9.0,23,-99.99,,,0.00,679.190002,,2013-03-03 21:41:00,
2013-03-03 13:52:00,41.0,7.0,-100.00,NNE,14,3.0,9.0,23,-99.99,,,0.00,679.190002,,2013-03-03 21:52:00,
2013-03-03 14:01:00,41.0,7.0,-100.00,NNE,14,3.0,9.0,23,-99.99,,,0.00,679.190002,,2013-03-03 22:01:00,
2013-03-03 14:11:00,41.0,7.0,-100.00,NNE,14,3.0,9.0,23,-99.99,,,0.00,679.190002,,2013-03-03 22:11:00,
2013-03-03 14:32:00,42.0,6.0,-100.00,North,358,6.0,12.0,22,-99.99,,,0.00,220.929993,,2013-03-03 22:32:00,
2013-03-03 14:42:00,42.0,6.0,-100.00,North,358,6.0,12.0,22,-99.99,,,0.00,220.929993,,2013-03-03 22:42:00,
2013-03-03 14:52:00,42.0,6.0,-100.00,North,358,6.0,12.0,22,-99.99,,,0.00,220.929993,,2013-03-03 22:52:00,
2013-03-03 15:01:00,42.0,6.0,-100.00,North,358,6.0,12.0,22,-99.99,,,0.00,220.929993,,2013-03-03 23:01:00,
2013-03-03 15:11:00,42.0,6.0,-100.00,North,358,6.0,12.0,22,-99.99,,,0.00,220.929993,,2013-03-03 23:11:00,